BHE179 ZWWW-ZBAD
Flight info
| Callsign | BHE179 |
|---|---|
| Flight time | N/A |
| Altitude | 37100 |
| Route | WUR W190 ADPET W188 LIKMI W270 DKO W64 ELAPU ELAPU5L |
| Aircraft | A21N/M-SDE2E3FGHIRWXY/LB1 |
Departure
| Time | 2026-05-06 05:15 |
|---|---|
| Airport | Ürümqi Tianshan International Airport (ZWWW) |
Arrival
| Time | N/A |
|---|---|
| Airport | Beijing Daxing International Airport (ZBAD) |
| Time | Latitude | Longitude | Altitude | Speed | Heading |
|---|---|---|---|---|---|
| 2026-05-06 04:51 | 43.91728 | 87.46835 | 2134 ft | 0 kts | 72° |
| 2026-05-06 05:06 | 43.91724 | 87.46816 | 2134 ft | 2 kts | 72° |
| 2026-05-06 05:06 | 43.91719 | 87.46796 | 2134 ft | 2 kts | 72° |
| 2026-05-06 05:07 | 43.91713 | 87.46777 | 2134 ft | 2 kts | 40° |
| 2026-05-06 05:07 | 43.91700 | 87.46767 | 2134 ft | 2 kts | 10° |
| 2026-05-06 05:07 | 43.91685 | 87.46768 | 2134 ft | 2 kts | 338° |
| 2026-05-06 05:07 | 43.91674 | 87.46774 | 2134 ft | 0 kts | 341° |
| 2026-05-06 05:08 | 43.91671 | 87.46775 | 2134 ft | 0 kts | 342° |
| 2026-05-06 05:08 | 43.91672 | 87.46775 | 2134 ft | 0 kts | 342° |
| 2026-05-06 05:09 | 43.91679 | 87.46772 | 2134 ft | 3 kts | 343° |
| 2026-05-06 05:10 | 43.91725 | 87.46752 | 2134 ft | 9 kts | 342° |
| 2026-05-06 05:10 | 43.91788 | 87.46725 | 2134 ft | 9 kts | 343° |
| 2026-05-06 05:10 | 43.91856 | 87.46697 | 2134 ft | 10 kts | 342° |
| 2026-05-06 05:10 | 43.91938 | 87.46664 | 2134 ft | 13 kts | 343° |
| 2026-05-06 05:11 | 43.92029 | 87.46626 | 2134 ft | 13 kts | 343° |
| 2026-05-06 05:11 | 43.92061 | 87.46531 | 2134 ft | 12 kts | 258° |
| 2026-05-06 05:11 | 43.92036 | 87.46411 | 2134 ft | 13 kts | 253° |
| 2026-05-06 05:11 | 43.92010 | 87.46287 | 2134 ft | 13 kts | 254° |
| 2026-05-06 05:12 | 43.91982 | 87.46152 | 2134 ft | 15 kts | 252° |
| 2026-05-06 05:12 | 43.91953 | 87.46004 | 2134 ft | 16 kts | 255° |
| 2026-05-06 05:12 | 43.91919 | 87.45849 | 2134 ft | 17 kts | 250° |
| 2026-05-06 05:12 | 43.91880 | 87.45689 | 2134 ft | 17 kts | 252° |
| 2026-05-06 05:13 | 43.91847 | 87.45529 | 2134 ft | 17 kts | 257° |
| 2026-05-06 05:13 | 43.91816 | 87.45371 | 2134 ft | 16 kts | 253° |
| 2026-05-06 05:13 | 43.91836 | 87.45279 | 2134 ft | 11 kts | 334° |
| 2026-05-06 05:13 | 43.91911 | 87.45245 | 2134 ft | 11 kts | 343° |
| 2026-05-06 05:14 | 43.91973 | 87.45275 | 2134 ft | 11 kts | 69° |
| 2026-05-06 05:14 | 43.92003 | 87.45412 | 2134 ft | 33 kts | 74° |
| 2026-05-06 05:14 | 43.92138 | 87.46054 | 2134 ft | 104 kts | 73° |
| 2026-05-06 05:14 | 43.92406 | 87.47298 | 2135 ft | 161 kts | 73° |
| 2026-05-06 05:15 | 43.92742 | 87.48846 | 2602 ft | 170 kts | 73° |
| 2026-05-06 05:15 | 43.93119 | 87.50385 | 3276 ft | 171 kts | 70° |
| 2026-05-06 05:15 | 43.93523 | 87.51939 | 3916 ft | 173 kts | 70° |
| 2026-05-06 05:15 | 43.93938 | 87.53572 | 4251 ft | 187 kts | 71° |
| 2026-05-06 05:16 | 43.94375 | 87.55340 | 4573 ft | 203 kts | 71° |
| 2026-05-06 05:16 | 43.94843 | 87.57252 | 4917 ft | 220 kts | 72° |
| 2026-05-06 05:16 | 43.95447 | 87.59326 | 5175 ft | 242 kts | 56° |
| 2026-05-06 05:16 | 43.96769 | 87.60784 | 5659 ft | 254 kts | 17° |
| 2026-05-06 05:17 | 43.98511 | 87.60885 | 6423 ft | 254 kts | 348° |
| 2026-05-06 05:17 | 44.00221 | 87.60395 | 7203 ft | 256 kts | 348° |
| 2026-05-06 05:17 | 44.01970 | 87.59948 | 7954 ft | 259 kts | 349° |
| 2026-05-06 05:17 | 44.03737 | 87.59532 | 8697 ft | 262 kts | 349° |
| 2026-05-06 05:18 | 44.05528 | 87.59128 | 9454 ft | 265 kts | 350° |
| 2026-05-06 05:18 | 44.07358 | 87.58722 | 10209 ft | 267 kts | 349° |
| 2026-05-06 05:18 | 44.09188 | 87.58320 | 10935 ft | 270 kts | 349° |
| 2026-05-06 05:18 | 44.11049 | 87.58021 | 11644 ft | 274 kts | 359° |